createdAt,value
2023-03-03T00:03:34.000Z,8.06
2023-03-03T00:08:38.821Z,7.86
2023-03-03T00:13:47.604Z,7.54
2023-03-03T00:18:51.283Z,7.55
2023-03-03T00:23:56.712Z,7.48
2023-03-03T00:28:59.742Z,7.26
2023-03-03T00:34:22.856Z,7.14
2023-03-03T00:39:32.822Z,7.28
2023-03-03T00:44:46.106Z,7.14
2023-03-03T00:49:49.352Z,7.07
2023-03-03T00:54:54.004Z,6.86
2023-03-03T00:59:57.333Z,6.80
2023-03-03T01:05:00.558Z,6.71
2023-03-03T01:10:05.475Z,6.56
2023-03-03T01:15:10.946Z,6.52
2023-03-03T01:20:15.062Z,6.56
2023-03-03T01:25:19.907Z,6.62
2023-03-03T01:30:23.645Z,6.64
2023-03-03T01:35:27.113Z,6.39
2023-03-03T01:40:33.017Z,6.40
2023-03-03T01:46:06.781Z,6.26
2023-03-03T01:51:19.813Z,6.22
2023-03-03T01:56:24.539Z,6.15
2023-03-03T02:01:29.962Z,6.06
2023-03-03T02:06:35.072Z,6.00
2023-03-03T02:11:43.593Z,5.95
2023-03-03T02:16:46.901Z,6.05
2023-03-03T02:21:50.202Z,5.99
2023-03-03T02:26:54.821Z,5.87
2023-03-03T02:31:58.195Z,5.71
2023-03-03T02:37:01.958Z,5.71
2023-03-03T02:42:13.392Z,5.67
2023-03-03T02:47:16.677Z,5.73
2023-03-03T02:52:19.794Z,5.95
2023-03-03T02:57:24.336Z,5.99
2023-03-03T03:02:27.588Z,5.83
2023-03-03T03:07:30.717Z,5.61
2023-03-03T03:12:35.290Z,5.56
2023-03-03T03:17:39.186Z,5.43
2023-03-03T03:22:42.423Z,5.39
2023-03-03T03:27:46.945Z,5.43
2023-03-03T03:32:50.139Z,5.50
2023-03-03T03:37:53.252Z,5.33
2023-03-03T03:42:58.219Z,5.22
2023-03-03T03:48:01.430Z,5.35
2023-03-03T03:53:04.849Z,5.25
2023-03-03T03:58:09.751Z,5.32
2023-03-03T04:03:14.792Z,5.54
2023-03-03T04:08:18.133Z,5.71
2023-03-03T04:13:23.430Z,5.86
2023-03-03T04:18:26.585Z,5.81
2023-03-03T04:23:29.847Z,5.85
2023-03-03T04:28:34.539Z,5.91
2023-03-03T04:33:37.751Z,5.87
2023-03-03T04:38:40.866Z,5.65
2023-03-03T04:43:45.437Z,5.75
2023-03-03T04:48:48.686Z,5.77
2023-03-03T04:53:51.898Z,5.62
2023-03-03T04:58:56.941Z,5.68
2023-03-03T05:04:00.134Z,5.68
2023-03-03T05:09:03.902Z,5.51
2023-03-03T05:14:08.881Z,5.56
2023-03-03T05:19:12.017Z,5.40
2023-03-03T05:24:15.806Z,5.45
2023-03-03T05:29:20.368Z,5.52
2023-03-03T05:34:23.514Z,5.42
2023-03-03T05:39:26.617Z,5.46
2023-03-03T05:44:31.213Z,5.27
2023-03-03T05:49:34.355Z,5.39
2023-03-03T05:54:37.841Z,5.39
2023-03-03T05:59:42.383Z,5.35
2023-03-03T06:04:45.513Z,5.38
2023-03-03T06:09:48.648Z,5.03
2023-03-03T06:14:53.227Z,5.09
2023-03-03T06:19:56.381Z,5.01
2023-03-03T06:24:59.580Z,5.08
2023-03-03T06:30:04.573Z,5.11
2023-03-03T06:35:08.396Z,5.13
2023-03-03T06:40:12.768Z,5.15
2023-03-03T06:45:18.107Z,5.14
2023-03-03T06:50:22.644Z,5.28
2023-03-03T06:55:25.820Z,5.05
2023-03-03T07:00:31.366Z,4.96
2023-03-03T07:05:34.720Z,4.97
2023-03-03T07:10:37.878Z,5.03
2023-03-03T07:15:43.408Z,4.95
2023-03-03T07:20:46.645Z,4.97
2023-03-03T07:25:49.773Z,5.09
2023-03-03T07:30:55.600Z,4.88
2023-03-03T07:36:00.645Z,5.07
2023-03-03T07:41:07.035Z,5.12
2023-03-03T07:46:28.521Z,5.22
2023-03-03T07:51:42.098Z,5.19
2023-03-03T07:56:45.948Z,5.49
2023-03-03T08:01:53.561Z,5.53
2023-03-03T08:06:58.006Z,6.06
2023-03-03T08:12:20.185Z,7.77
2023-03-03T08:17:26.453Z,8.97
2023-03-03T08:22:33.041Z,9.84
2023-03-03T08:27:36.200Z,11.37
2023-03-03T08:32:40.835Z,11.84
2023-03-03T08:37:44.083Z,12.49
2023-03-03T08:42:47.258Z,12.92
2023-03-03T08:48:06.257Z,13.45
2023-03-03T08:53:10.029Z,13.95
2023-03-03T08:58:13.378Z,14.92
2023-03-03T09:03:17.900Z,15.48
2023-03-03T09:08:21.225Z,15.38
2023-03-03T09:13:24.402Z,17.07
2023-03-03T09:18:36.075Z,16.17
2023-03-03T09:23:40.669Z,12.73
2023-03-03T09:28:44.062Z,11.91
2023-03-03T09:33:52.113Z,11.00
2023-03-03T09:38:56.084Z,10.92
2023-03-03T09:44:18.545Z,11.16
2023-03-03T09:49:32.578Z,11.39
2023-03-03T09:54:56.189Z,14.24
2023-03-03T10:00:21.139Z,15.15
2023-03-03T10:05:43.122Z,16.40
2023-03-03T10:10:55.600Z,16.81
2023-03-03T10:16:14.879Z,16.96
2023-03-03T10:21:25.892Z,16.93
2023-03-03T10:26:46.411Z,18.57
2023-03-03T10:32:09.494Z,18.47
2023-03-03T10:37:23.272Z,18.19
2023-03-03T10:42:39.697Z,18.36
2023-03-03T10:48:07.980Z,18.53
2023-03-03T10:53:23.553Z,18.55
2023-03-03T10:58:47.685Z,19.50
2023-03-03T11:04:13.745Z,18.79
2023-03-03T11:09:41.412Z,19.80
2023-03-03T11:14:51.116Z,21.03
2023-03-03T11:20:04.977Z,22.32
2023-03-03T11:25:22.675Z,22.26
2023-03-03T11:30:55.396Z,21.18
2023-03-03T11:36:11.459Z,21.81
2023-03-03T11:41:27.723Z,21.69
2023-03-03T11:46:36.743Z,21.83
2023-03-03T11:51:50.345Z,21.45
2023-03-03T11:57:02.779Z,22.06
2023-03-03T12:02:21.939Z,21.93
2023-03-03T12:07:33.981Z,22.19
2023-03-03T12:12:43.165Z,21.78
2023-03-03T12:18:03.308Z,22.74
2023-03-03T12:23:21.113Z,23.60
2023-03-03T12:28:29.133Z,25.25
2023-03-03T12:33:43.781Z,24.98
2023-03-03T12:38:55.456Z,24.99
2023-03-03T12:44:05.609Z,25.41
2023-03-03T12:49:08.829Z,24.92
2023-03-03T12:54:37.722Z,24.07
2023-03-03T12:59:50.439Z,24.84
2023-03-03T13:05:01.708Z,24.50
2023-03-03T13:10:15.564Z,24.94
2023-03-03T13:15:32.244Z,24.84
2023-03-03T13:20:46.225Z,24.00
2023-03-03T13:25:54.827Z,23.98
2023-03-03T13:31:04.675Z,24.04
2023-03-03T13:36:11.758Z,25.55
2023-03-03T13:41:22.636Z,26.53
2023-03-03T13:46:39.121Z,25.52
2023-03-03T13:51:48.762Z,25.41
2023-03-03T13:57:12.131Z,25.26
2023-03-03T14:02:41.069Z,24.55
2023-03-03T14:07:48.340Z,22.95
2023-03-03T14:13:00.283Z,22.53
2023-03-03T14:18:31.053Z,22.12
2023-03-03T14:23:42.319Z,21.45
2023-03-03T14:28:47.311Z,21.57
2023-03-03T14:34:03.150Z,21.49
2023-03-03T14:39:31.998Z,21.74
2023-03-03T14:44:38.265Z,22.01
2023-03-03T14:49:42.922Z,21.30
2023-03-03T14:54:48.788Z,20.90
2023-03-03T15:00:01.236Z,20.62
2023-03-03T15:05:19.708Z,20.85
2023-03-03T15:10:32.574Z,21.28
2023-03-03T15:15:36.152Z,19.75
2023-03-03T15:20:43.891Z,19.82
2023-03-03T15:25:57.741Z,19.86
2023-03-03T15:31:09.162Z,19.59
2023-03-03T15:36:26.332Z,19.25
2023-03-03T15:41:39.693Z,18.64
2023-03-03T15:46:59.195Z,17.75
2023-03-03T15:52:22.838Z,17.83
2023-03-03T15:57:42.294Z,18.22
2023-03-03T16:02:53.312Z,18.10
2023-03-03T16:08:14.177Z,17.49
2023-03-03T16:13:24.465Z,17.19
2023-03-03T16:18:37.661Z,17.55
2023-03-03T16:23:48.083Z,17.92
2023-03-03T16:29:09.995Z,17.61
2023-03-03T16:34:18.583Z,17.48
2023-03-03T16:39:31.396Z,17.10
2023-03-03T16:44:45.361Z,16.36
2023-03-03T16:49:57.161Z,15.72
2023-03-03T16:55:07.140Z,15.50
2023-03-03T17:00:13.828Z,15.27
2023-03-03T17:05:26.488Z,15.14
2023-03-03T17:10:36.613Z,14.85
2023-03-03T17:15:51.814Z,14.65
2023-03-03T17:20:57.752Z,14.56
2023-03-03T17:26:14.216Z,14.53
2023-03-03T17:31:25.040Z,14.42
2023-03-03T17:36:39.889Z,14.34
2023-03-03T17:41:53.661Z,14.24
2023-03-03T17:47:01.585Z,14.09
2023-03-03T17:52:39.331Z,13.90
2023-03-03T17:57:58.810Z,13.82
2023-03-03T18:03:31.950Z,13.73
2023-03-03T18:09:02.006Z,13.69
2023-03-03T18:14:35.394Z,13.58
2023-03-03T18:20:00.285Z,13.50
2023-03-03T18:25:09.808Z,13.35
2023-03-03T18:30:54.678Z,13.02
2023-03-03T18:36:14.300Z,12.77
2023-03-03T18:41:24.478Z,12.54
2023-03-03T18:46:55.653Z,12.35
2023-03-03T18:52:24.619Z,12.14
2023-03-03T18:57:28.085Z,12.01
2023-03-03T19:02:39.192Z,11.97
2023-03-03T19:07:52.660Z,11.75
2023-03-03T19:12:58.015Z,11.74
2023-03-03T19:18:04.887Z,11.68
2023-03-03T19:23:14.301Z,11.67
2023-03-03T19:28:37.284Z,11.48
2023-03-03T19:33:57.267Z,11.37
2023-03-03T19:39:13.213Z,11.45
2023-03-03T19:44:32.532Z,11.27
2023-03-03T19:49:56.085Z,11.08
2023-03-03T19:55:13.843Z,10.84
2023-03-03T20:00:24.770Z,10.92
2023-03-03T20:05:40.835Z,10.84
2023-03-03T20:10:53.651Z,10.66
2023-03-03T20:16:08.240Z,10.56
2023-03-03T20:21:29.753Z,10.82
2023-03-03T20:26:40.293Z,10.99
2023-03-03T20:31:51.189Z,11.05
